Time;durP1;ratioP1;P1;durP2;ratioP2;P2;SDS_P1;SDS_P2;PMS_P1;PMS_P2;Temp;Humidity;BMP_temperature;BMP_pressure;BME280_temperature;BME280_humidity;BME280_pressure;Samples;Min_cycle;Max_cycle;Signal;HPM_P1;HPM_P2
2022/03/16 00:00:50;;;;;;;19.98;11.65;;;6.70;99.90;;;;;;5016945;28;20041;-82
2022/03/16 00:03:15;;;;;;;20.90;11.75;;;6.70;99.90;;;;;;5025530;28;20047;-83
2022/03/16 00:05:41;;;;;;;24.45;13.00;;;6.70;99.90;;;;;;5063634;28;20421;-82
2022/03/16 00:08:07;;;;;;;18.65;11.43;;;6.60;99.90;;;;;;5021332;28;20072;-83
2022/03/16 00:10:32;;;;;;;19.77;11.38;;;6.60;99.90;;;;;;5052308;28;20449;-83
2022/03/16 00:12:58;;;;;;;17.63;11.63;;;6.50;99.90;;;;;;5033709;28;20448;-82
2022/03/16 00:15:25;;;;;;;19.23;11.95;;;6.50;99.90;;;;;;5036544;28;20041;-82
2022/03/16 00:17:50;;;;;;;18.15;11.43;;;6.50;99.90;;;;;;5038225;28;20372;-83
2022/03/16 00:20:16;;;;;;;24.52;14.27;;;6.50;99.90;;;;;;5035835;28;20659;-82
2022/03/16 00:22:42;;;;;;;22.52;13.38;;;6.40;99.90;;;;;;5053593;28;20032;-82
2022/03/16 00:25:08;;;;;;;22.83;12.98;;;6.40;99.90;;;;;;5050887;28;20041;-82
2022/03/16 00:27:34;;;;;;;18.92;12.07;;;6.10;99.90;;;;;;5052584;28;20033;-82
2022/03/16 00:29:59;;;;;;;22.95;12.80;;;6.10;99.90;;;;;;5031826;28;20056;-82
2022/03/16 00:32:25;;;;;;;18.83;12.18;;;6.00;99.90;;;;;;5035272;28;20025;-83
2022/03/16 00:34:50;;;;;;;20.75;12.52;;;6.00;99.90;;;;;;5036242;28;20041;-83
2022/03/16 00:37:16;;;;;;;18.55;11.57;;;6.00;99.90;;;;;;5038547;28;20080;-82
2022/03/16 00:39:42;;;;;;;21.90;11.77;;;5.90;99.90;;;;;;5037590;28;20041;-83
2022/03/16 00:42:08;;;;;;;19.52;11.02;;;5.90;99.90;;;;;;5035601;28;20551;-82
2022/03/16 00:44:35;;;;;;;20.73;12.15;;;5.80;99.90;;;;;;5035394;28;20402;-82
2022/03/16 00:47:02;;;;;;;20.25;11.77;;;5.80;99.90;;;;;;5019945;28;20434;-82
2022/03/16 00:49:28;;;;;;;20.90;11.95;;;5.80;99.90;;;;;;5033011;28;20068;-83
2022/03/16 00:51:54;;;;;;;18.23;11.00;;;5.80;99.90;;;;;;5041863;28;20041;-83
2022/03/16 00:54:19;;;;;;;21.23;12.02;;;5.80;99.90;;;;;;5038083;28;20069;-82
2022/03/16 00:56:45;;;;;;;19.17;11.88;;;5.80;99.90;;;;;;5030953;28;20091;-82
2022/03/16 00:59:10;;;;;;;21.40;12.43;;;5.80;99.90;;;;;;5015955;28;20033;-82
2022/03/16 01:01:36;;;;;;;21.27;13.18;;;5.70;99.90;;;;;;5051915;28;20124;-82
2022/03/16 01:04:02;;;;;;;24.90;13.48;;;5.70;99.90;;;;;;5022244;28;20110;-83
2022/03/16 01:06:28;;;;;;;22.38;12.82;;;5.70;99.90;;;;;;5057660;28;20122;-83
2022/03/16 01:08:53;;;;;;;18.55;11.52;;;5.70;99.90;;;;;;5042599;28;20048;-82
2022/03/16 01:11:19;;;;;;;23.35;12.88;;;5.70;99.90;;;;;;5036591;28;20057;-82
2022/03/16 01:13:46;;;;;;;24.27;13.25;;;5.70;99.90;;;;;;5047441;28;20493;-83
2022/03/16 01:16:12;;;;;;;17.63;11.05;;;5.70;99.90;;;;;;5051381;28;20512;-83
2022/03/16 01:18:38;;;;;;;20.77;13.35;;;5.70;99.90;;;;;;5015582;28;20076;-83
2022/03/16 01:21:07;;;;;;;22.17;12.95;;;5.70;99.90;;;;;;5037976;28;20060;-83
2022/03/16 01:23:37;;;;;;;23.88;13.32;;;5.70;99.90;;;;;;5052898;28;20036;-83
2022/03/16 01:26:04;;;;;;;26.15;14.85;;;5.70;99.90;;;;;;5043777;28;20170;-82
2022/03/16 01:28:30;;;;;;;22.23;13.20;;;5.70;99.90;;;;;;5047924;28;20037;-82
2022/03/16 01:30:57;;;;;;;25.73;15.00;;;5.70;99.90;;;;;;5036774;28;20032;-83
2022/03/16 01:33:23;;;;;;;24.58;14.88;;;5.70;99.90;;;;;;5016090;28;20515;-82
2022/03/16 01:35:49;;;;;;;21.65;12.93;;;5.70;99.90;;;;;;5038701;28;20136;-82
2022/03/16 01:38:14;;;;;;;24.33;14.38;;;5.70;99.90;;;;;;5049714;28;20501;-82
2022/03/16 01:40:40;;;;;;;21.05;12.68;;;5.70;99.90;;;;;;5036016;28;20067;-83
2022/03/16 01:43:06;;;;;;;21.25;12.30;;;5.70;99.90;;;;;;5033059;28;20091;-82
2022/03/16 01:45:31;;;;;;;25.08;15.20;;;5.70;99.90;;;;;;5029500;28;20118;-82
2022/03/16 01:47:57;;;;;;;25.65;13.93;;;5.60;99.90;;;;;;5034711;28;20033;-82
2022/03/16 01:50:23;;;;;;;26.98;15.38;;;5.60;99.90;;;;;;5033073;28;20358;-82
2022/03/16 01:52:49;;;;;;;22.08;13.38;;;5.60;99.90;;;;;;5027803;28;20397;-83
2022/03/16 01:55:14;;;;;;;26.90;14.82;;;5.60;99.90;;;;;;5036222;28;20128;-82
2022/03/16 01:57:45;;;;;;;23.45;13.95;;;5.60;99.90;;;;;;5061148;28;20108;-82
2022/03/16 02:00:11;;;;;;;21.52;13.20;;;5.60;99.90;;;;;;5027012;28;20061;-83
2022/03/16 02:02:36;;;;;;;26.52;14.73;;;5.60;99.90;;;;;;5034134;28;20425;-82
2022/03/16 02:05:02;;;;;;;26.77;15.50;;;5.60;99.90;;;;;;5033416;28;20053;-82
2022/03/16 02:07:28;;;;;;;28.35;16.08;;;5.60;99.90;;;;;;5012393;28;20122;-83
2022/03/16 02:09:57;;;;;;;26.00;14.95;;;5.50;99.90;;;;;;5032095;28;20502;-83
2022/03/16 02:12:23;;;;;;;21.88;13.40;;;5.50;99.90;;;;;;5028495;28;20286;-82
2022/03/16 02:14:48;;;;;;;26.83;16.13;;;5.50;99.90;;;;;;5015712;28;20456;-83
2022/03/16 02:17:14;;;;;;;24.83;14.23;;;5.50;99.90;;;;;;5053674;28;20048;-83
2022/03/16 02:19:40;;;;;;;23.65;14.30;;;5.50;99.90;;;;;;5043761;28;20036;-83
2022/03/16 02:22:08;;;;;;;21.52;12.98;;;5.40;99.90;;;;;;5033293;28;20041;-83
2022/03/16 02:24:34;;;;;;;21.65;11.80;;;5.40;99.90;;;;;;5011779;28;20083;-83
2022/03/16 02:26:59;;;;;;;22.25;13.15;;;5.30;99.90;;;;;;5033230;28;20403;-83
2022/03/16 02:29:25;;;;;;;20.98;11.50;;;5.20;99.90;;;;;;5033887;28;20044;-81
2022/03/16 02:31:51;;;;;;;17.80;10.73;;;5.20;99.90;;;;;;5033021;28;20457;-81
2022/03/16 02:34:16;;;;;;;19.35;11.82;;;5.10;99.90;;;;;;5047273;28;20398;-82
2022/03/16 02:36:42;;;;;;;16.17;10.68;;;5.00;99.90;;;;;;5049421;28;20139;-82
2022/03/16 02:39:08;;;;;;;17.45;11.38;;;5.00;99.90;;;;;;5013817;28;20029;-82
2022/03/16 02:41:33;;;;;;;18.50;10.52;;;4.90;99.90;;;;;;5035968;28;20346;-83
2022/03/16 02:43:59;;;;;;;15.88;9.23;;;4.90;99.90;;;;;;5012507;28;20132;-82
2022/03/16 02:46:25;;;;;;;18.30;10.50;;;4.80;99.90;;;;;;5013935;28;20044;-82
2022/03/16 02:48:50;;;;;;;18.05;11.88;;;4.80;99.90;;;;;;5029448;28;20052;-82
2022/03/16 02:51:16;;;;;;;18.23;11.73;;;4.80;99.90;;;;;;5056658;28;20394;-83
2022/03/16 02:53:42;;;;;;;16.40;10.40;;;4.70;99.90;;;;;;5049153;28;20052;-82
2022/03/16 02:56:07;;;;;;;19.02;12.30;;;4.70;99.90;;;;;;5030594;28;20427;-83
2022/03/16 02:58:33;;;;;;;22.98;13.57;;;4.70;99.90;;;;;;5038632;28;20048;-81
2022/03/16 03:00:59;;;;;;;22.77;13.23;;;4.70;99.90;;;;;;5051591;28;20115;-82
2022/03/16 03:03:25;;;;;;;19.48;12.45;;;4.70;99.90;;;;;;5042715;28;20041;-82
2022/03/16 03:05:52;;;;;;;25.40;14.85;;;4.70;99.90;;;;;;5043426;28;20099;-82
2022/03/16 03:08:17;;;;;;;20.70;11.52;;;4.70;99.90;;;;;;5043931;28;20068;-82
2022/03/16 03:10:43;;;;;;;21.67;12.93;;;4.60;99.90;;;;;;5031255;28;20065;-82
2022/03/16 03:13:08;;;;;;;18.75;10.98;;;4.70;99.90;;;;;;5022300;28;20084;-82
2022/03/16 03:15:34;;;;;;;24.70;15.20;;;4.70;99.90;;;;;;5034257;28;20044;-82
2022/03/16 03:18:00;;;;;;;19.33;12.52;;;4.70;99.90;;;;;;5043147;28;20041;-82
2022/03/16 03:20:25;;;;;;;30.73;15.57;;;4.70;99.90;;;;;;5036716;28;20032;-82
2022/03/16 03:22:51;;;;;;;22.88;14.13;;;4.70;99.90;;;;;;5054936;28;20088;-82
2022/03/16 03:25:17;;;;;;;23.42;14.35;;;4.70;99.90;;;;;;5044381;28;20496;-83
2022/03/16 03:27:42;;;;;;;21.05;12.98;;;4.70;99.90;;;;;;5043076;28;20047;-83
2022/03/16 03:30:09;;;;;;;16.33;10.98;;;4.70;99.90;;;;;;5013786;28;20040;-83
2022/03/16 03:32:35;;;;;;;23.17;14.00;;;4.70;99.90;;;;;;5019632;28;20044;-82
2022/03/16 03:35:01;;;;;;;22.88;13.60;;;4.70;99.90;;;;;;5033076;28;20040;-82
2022/03/16 03:37:29;;;;;;;21.45;12.85;;;4.60;99.90;;;;;;5035626;28;20055;-82
2022/03/16 03:39:55;;;;;;;21.05;12.52;;;4.60;99.90;;;;;;5043040;28;20152;-82
2022/03/16 03:42:21;;;;;;;23.55;14.35;;;4.60;99.90;;;;;;5031156;28;20142;-83
2022/03/16 03:44:47;;;;;;;23.30;14.52;;;4.50;99.90;;;;;;5028392;28;20038;-82
2022/03/16 03:47:13;;;;;;;22.95;13.18;;;4.60;99.90;;;;;;5030575;28;20081;-82
2022/03/16 03:49:39;;;;;;;27.45;14.45;;;4.60;99.90;;;;;;5030996;28;20105;-82
2022/03/16 03:52:06;;;;;;;21.10;11.98;;;4.50;99.90;;;;;;5030517;28;20068;-82
2022/03/16 03:54:32;;;;;;;27.83;15.63;;;4.60;99.90;;;;;;5047502;28;20056;-82
2022/03/16 03:56:58;;;;;;;23.88;14.13;;;4.50;99.90;;;;;;5029178;28;20021;-82
2022/03/16 03:59:24;;;;;;;19.85;13.13;;;4.50;99.90;;;;;;5031269;28;20106;-82
2022/03/16 04:01:50;;;;;;;24.13;15.20;;;4.50;99.90;;;;;;5018077;28;20476;-82
2022/03/16 04:04:16;;;;;;;28.13;15.75;;;4.50;99.90;;;;;;5036483;28;20048;-83
2022/03/16 04:06:41;;;;;;;24.58;14.57;;;4.50;99.90;;;;;;5018510;28;20063;-83
2022/03/16 04:09:07;;;;;;;23.92;14.35;;;4.40;99.90;;;;;;5015563;28;20040;-82
2022/03/16 04:11:33;;;;;;;23.10;14.38;;;4.40;99.90;;;;;;5036317;28;20047;-82
2022/03/16 04:13:59;;;;;;;24.00;15.40;;;4.40;99.90;;;;;;5020476;28;20394;-82
2022/03/16 04:16:25;;;;;;;24.38;14.07;;;4.40;99.90;;;;;;5042151;28;20040;-82
2022/03/16 04:18:51;;;;;;;20.30;13.07;;;4.40;99.90;;;;;;5031730;28;20439;-83
2022/03/16 04:21:16;;;;;;;24.38;15.23;;;4.40;99.90;;;;;;5023818;28;20044;-82
2022/03/16 04:23:42;;;;;;;23.75;14.35;;;4.40;99.90;;;;;;5019368;28;20457;-82
2022/03/16 04:26:08;;;;;;;26.30;16.50;;;4.30;99.90;;;;;;5018393;28;20040;-82
2022/03/16 04:28:34;;;;;;;23.63;14.80;;;4.30;99.90;;;;;;5037091;28;20037;-82
2022/03/16 04:31:01;;;;;;;23.70;14.10;;;4.30;99.90;;;;;;5022830;28;20059;-82
2022/03/16 04:33:30;;;;;;;21.95;13.77;;;4.30;99.90;;;;;;5052702;28;20375;-82
2022/03/16 04:35:57;;;;;;;17.08;11.38;;;4.30;99.90;;;;;;5030481;28;20041;-83
2022/03/16 04:38:22;;;;;;;23.95;13.90;;;4.20;99.90;;;;;;5033286;28;20036;-82
2022/03/16 04:40:48;;;;;;;17.45;12.23;;;4.20;99.90;;;;;;5036092;28;20037;-82
2022/03/16 04:43:14;;;;;;;20.50;13.25;;;4.10;99.90;;;;;;5049822;28;20052;-82
2022/03/16 04:45:40;;;;;;;20.13;13.40;;;4.10;99.90;;;;;;5023517;28;20400;-82
2022/03/16 04:48:08;;;;;;;22.98;15.05;;;4.10;99.90;;;;;;5036149;28;20044;-82
2022/03/16 04:50:34;;;;;;;21.77;13.52;;;4.10;99.90;;;;;;5034787;28;20045;-82
2022/03/16 04:53:00;;;;;;;21.95;13.52;;;4.10;99.90;;;;;;5066082;28;20045;-82
2022/03/16 04:55:26;;;;;;;21.08;14.25;;;4.00;99.90;;;;;;5029852;28;20091;-82
2022/03/16 04:57:52;;;;;;;22.00;13.70;;;4.00;99.90;;;;;;5037315;28;20045;-82
2022/03/16 05:00:18;;;;;;;21.75;13.75;;;4.00;99.90;;;;;;5047814;28;20040;-82
2022/03/16 05:02:43;;;;;;;24.80;14.52;;;4.00;99.90;;;;;;5015967;28;20080;-82
2022/03/16 05:05:10;;;;;;;23.00;15.40;;;4.00;99.90;;;;;;5029669;28;20045;-83
2022/03/16 05:07:38;;;;;;;24.83;14.00;;;4.00;99.90;;;;;;5031262;28;20061;-82
2022/03/16 05:10:05;;;;;;;24.40;15.05;;;4.00;99.90;;;;;;5026009;28;20096;-82
2022/03/16 05:12:38;;;;;;;22.85;14.63;;;3.90;99.90;;;;;;5027225;28;20085;-82
2022/03/16 05:15:09;;;;;;;26.15;15.05;;;3.90;99.90;;;;;;5028954;28;20137;-82
2022/03/16 05:17:35;;;;;;;24.83;15.45;;;3.90;99.90;;;;;;5029693;28;20072;-82
2022/03/16 05:20:01;;;;;;;21.75;13.40;;;3.90;99.90;;;;;;5037112;28;20033;-82
2022/03/16 05:22:26;;;;;;;25.05;14.27;;;3.90;99.90;;;;;;5028670;28;20034;-82
2022/03/16 05:24:52;;;;;;;22.52;13.93;;;3.90;99.90;;;;;;5027627;28;20071;-82
2022/03/16 05:27:20;;;;;;;26.83;15.18;;;3.90;99.90;;;;;;5032530;28;20097;-82
2022/03/16 05:29:47;;;;;;;25.88;14.30;;;3.90;99.90;;;;;;5025700;28;20038;-82
2022/03/16 05:32:14;;;;;;;22.98;14.65;;;3.90;99.90;;;;;;5006941;28;20065;-82
2022/03/16 05:34:39;;;;;;;24.58;15.77;;;3.90;99.90;;;;;;5030745;28;20033;-82
2022/03/16 05:37:05;;;;;;;27.88;15.65;;;3.90;99.90;;;;;;5032507;28;20482;-81
2022/03/16 05:39:31;;;;;;;22.30;14.50;;;3.90;99.90;;;;;;5031785;28;20052;-82
2022/03/16 05:41:56;;;;;;;22.52;14.00;;;3.90;99.90;;;;;;5028385;28;20509;-82
2022/03/16 05:44:22;;;;;;;22.83;14.88;;;3.90;99.90;;;;;;5023258;28;20149;-82
2022/03/16 05:46:48;;;;;;;23.27;15.05;;;3.90;99.90;;;;;;5032307;28;20098;-83
2022/03/16 05:49:14;;;;;;;23.00;14.38;;;3.90;99.90;;;;;;5031416;28;20280;-83
2022/03/16 05:51:39;;;;;;;23.50;14.15;;;3.90;99.90;;;;;;5015779;28;20478;-82
2022/03/16 05:54:05;;;;;;;19.75;13.52;;;3.90;99.90;;;;;;5018479;28;20116;-82
2022/03/16 05:56:31;;;;;;;19.17;13.00;;;3.80;99.90;;;;;;5028650;28;20030;-82
2022/03/16 05:58:58;;;;;;;23.15;14.57;;;3.80;99.90;;;;;;5031510;28;20045;-82
2022/03/16 06:01:23;;;;;;;21.77;14.48;;;3.80;99.90;;;;;;5030157;28;20052;-83
2022/03/16 06:03:49;;;;;;;23.15;14.50;;;3.80;99.90;;;;;;5031397;28;20058;-82
2022/03/16 06:06:15;;;;;;;23.23;15.43;;;3.80;99.90;;;;;;5037148;28;20046;-83
2022/03/16 06:08:41;;;;;;;24.95;15.93;;;3.80;99.90;;;;;;5012482;28;20071;-82
2022/03/16 06:11:06;;;;;;;22.05;14.75;;;3.80;99.90;;;;;;5014094;28;20045;-82
2022/03/16 06:13:32;;;;;;;21.75;15.02;;;3.80;99.90;;;;;;5029436;28;20391;-83
2022/03/16 06:15:58;;;;;;;20.73;14.65;;;3.90;99.90;;;;;;5025056;28;20037;-82
2022/03/16 06:18:23;;;;;;;25.95;15.80;;;3.90;99.90;;;;;;5046482;28;20173;-82
2022/03/16 06:20:49;;;;;;;23.10;15.50;;;3.90;99.90;;;;;;5029518;28;20037;-82
2022/03/16 06:23:14;;;;;;;25.13;15.75;;;3.90;99.90;;;;;;5028825;28;20056;-81
2022/03/16 06:25:41;;;;;;;22.23;14.13;;;3.90;99.90;;;;;;5023827;28;20049;-82
2022/03/16 06:28:06;;;;;;;23.17;15.60;;;4.00;99.90;;;;;;5026382;28;20422;-83
2022/03/16 06:30:32;;;;;;;25.02;15.07;;;4.00;99.90;;;;;;5029227;28;20099;-82
2022/03/16 06:32:58;;;;;;;23.25;15.57;;;4.10;99.90;;;;;;5010763;28;20092;-82
2022/03/16 06:35:23;;;;;;;22.52;15.50;;;4.10;99.90;;;;;;5029191;28;20041;-82
2022/03/16 06:37:49;;;;;;;24.00;15.10;;;4.20;99.90;;;;;;5026301;28;20053;-82
2022/03/16 06:40:16;;;;;;;33.65;16.42;;;4.20;99.90;;;;;;5026618;28;20043;-82
2022/03/16 06:42:52;;;;;;;24.73;16.05;;;4.20;99.90;;;;;;5027079;28;20045;-82
2022/03/16 06:45:22;;;;;;;25.17;15.13;;;4.30;99.90;;;;;;5026056;28;20472;-82
2022/03/16 06:47:54;;;;;;;25.90;16.90;;;4.30;99.90;;;;;;5025445;28;20041;-83
2022/03/16 06:50:22;;;;;;;21.48;14.57;;;4.40;99.90;;;;;;5025821;28;20029;-82
2022/03/16 06:52:48;;;;;;;26.25;16.35;;;4.40;99.90;;;;;;5008294;28;20111;-82
2022/03/16 06:55:13;;;;;;;27.63;18.02;;;4.50;99.90;;;;;;5026008;28;20128;-82
2022/03/16 06:57:39;;;;;;;26.23;17.60;;;4.50;99.90;;;;;;5027339;28;20076;-82
2022/03/16 07:00:07;;;;;;;24.10;14.32;;;4.60;99.90;;;;;;5022957;28;20038;-82
2022/03/16 07:03:00;;;;;;;24.90;16.08;;;4.60;99.90;;;;;;5033480;28;20750;-82
2022/03/16 07:05:37;;;;;;;27.23;17.05;;;4.70;99.90;;;;;;5009055;28;20061;-83
2022/03/16 07:08:08;;;;;;;25.55;16.85;;;4.70;99.90;;;;;;5028000;28;20064;-83
2022/03/16 07:10:35;;;;;;;23.98;15.70;;;4.80;99.90;;;;;;5034454;28;20042;-83
2022/03/16 07:13:02;;;;;;;24.70;16.98;;;4.80;99.90;;;;;;5022201;28;20056;-84
2022/03/16 07:15:30;;;;;;;25.33;16.50;;;4.90;99.90;;;;;;5029685;28;20088;-83
2022/03/16 07:17:56;;;;;;;29.67;20.05;;;4.90;99.90;;;;;;5024099;28;20068;-84
2022/03/16 07:20:22;;;;;;;28.73;19.02;;;5.00;99.90;;;;;;5009580;28;20473;-84
2022/03/16 07:23:04;;;;;;;28.40;18.20;;;5.00;99.90;;;;;;5029074;28;20068;-83
2022/03/16 07:25:30;;;;;;;29.30;17.98;;;5.10;99.90;;;;;;5018644;28;20033;-83
2022/03/16 07:27:59;;;;;;;29.20;18.20;;;5.10;99.90;;;;;;5031162;28;20045;-83
2022/03/16 07:30:24;;;;;;;30.67;19.67;;;5.20;99.90;;;;;;5011652;28;20486;-83
2022/03/16 07:32:50;;;;;;;30.20;19.25;;;5.20;99.90;;;;;;5029854;28;20030;-83
2022/03/16 07:35:16;;;;;;;34.67;21.02;;;5.30;99.90;;;;;;5010942;28;20049;-83
2022/03/16 07:37:47;;;;;;;32.88;20.17;;;5.40;99.90;;;;;;5028660;28;20577;-83
2022/03/16 07:40:13;;;;;;;33.78;21.30;;;5.40;99.90;;;;;;5021882;28;20084;-83
2022/03/16 07:42:43;;;;;;;28.80;18.75;;;5.50;99.90;;;;;;5021781;28;20065;-83
2022/03/16 07:45:10;;;;;;;34.85;22.63;;;5.60;99.90;;;;;;5024646;28;20068;-83
2022/03/16 07:47:35;;;;;;;31.17;19.63;;;5.70;99.90;;;;;;5031973;28;20474;-83
2022/03/16 07:50:01;;;;;;;32.38;20.65;;;5.80;99.90;;;;;;5031171;28;20056;-84
2022/03/16 07:52:27;;;;;;;34.38;21.30;;;5.90;99.90;;;;;;5031843;28;20174;-83
2022/03/16 07:54:55;;;;;;;33.95;21.23;;;6.00;99.90;;;;;;5033749;28;20542;-83
2022/03/16 07:57:21;;;;;;;33.47;21.83;;;6.10;99.90;;;;;;5037235;28;20462;-84
2022/03/16 07:59:46;;;;;;;32.22;21.17;;;6.30;99.90;;;;;;5030874;28;20112;-84
2022/03/16 08:02:18;;;;;;;30.40;20.35;;;6.30;99.90;;;;;;5042562;28;20128;-84
2022/03/16 08:04:43;;;;;;;35.30;20.45;;;6.40;99.90;;;;;;5046392;28;20493;-83
2022/03/16 08:07:12;;;;;;;30.52;20.25;;;6.50;99.90;;;;;;5040280;28;20060;-83
2022/03/16 08:09:44;;;;;;;33.72;20.77;;;6.60;99.90;;;;;;5019972;28;20079;-84
2022/03/16 08:12:09;;;;;;;29.40;19.23;;;6.70;99.90;;;;;;5024171;28;20044;-83
2022/03/16 08:14:35;;;;;;;31.20;19.92;;;6.80;99.90;;;;;;5029295;28;20488;-83
2022/03/16 08:17:00;;;;;;;30.85;20.15;;;6.90;99.90;;;;;;5036244;28;20178;-84
2022/03/16 08:19:26;;;;;;;29.90;19.35;;;7.00;99.90;;;;;;5049927;28;20033;-84
2022/03/16 08:21:52;;;;;;;26.17;17.65;;;7.10;99.90;;;;;;5058621;28;20047;-84
2022/03/16 08:24:17;;;;;;;26.25;17.48;;;7.10;99.90;;;;;;5020668;28;20033;-84
2022/03/16 08:26:43;;;;;;;28.52;18.15;;;7.30;99.90;;;;;;5035251;28;20103;-83
2022/03/16 08:29:09;;;;;;;26.52;17.48;;;7.30;99.90;;;;;;5052751;28;20041;-84
2022/03/16 08:31:35;;;;;;;26.90;17.20;;;7.40;99.90;;;;;;5034289;28;20076;-83
2022/03/16 08:34:02;;;;;;;23.73;15.98;;;7.50;99.90;;;;;;5035617;28;20063;-83
2022/03/16 08:36:28;;;;;;;25.40;15.88;;;7.60;99.90;;;;;;5036064;28;20076;-83
2022/03/16 08:38:54;;;;;;;23.70;16.30;;;7.70;99.90;;;;;;5016099;28;20500;-83
2022/03/16 08:41:20;;;;;;;23.70;16.35;;;7.80;99.90;;;;;;5037329;28;20032;-84
2022/03/16 08:43:46;;;;;;;24.08;16.13;;;7.90;99.90;;;;;;5057102;28;20041;-83
2022/03/16 08:46:11;;;;;;;23.38;16.52;;;8.00;99.90;;;;;;5018277;28;20412;-83
2022/03/16 08:48:37;;;;;;;25.48;16.30;;;8.10;99.90;;;;;;5034158;28;20499;-83
2022/03/16 08:51:03;;;;;;;22.20;14.77;;;8.20;99.90;;;;;;5035217;28;20083;-83
2022/03/16 08:53:29;;;;;;;25.05;15.48;;;8.30;99.90;;;;;;5018532;28;20056;-83
2022/03/16 08:55:55;;;;;;;22.98;15.23;;;8.40;99.90;;;;;;5053524;28;20029;-83
2022/03/16 08:58:21;;;;;;;22.02;14.77;;;8.50;99.90;;;;;;5040289;28;20039;-83
2022/03/16 09:00:46;;;;;;;19.48;14.77;;;8.60;99.90;;;;;;5021169;28;20033;-83
2022/03/16 09:03:12;;;;;;;19.35;13.82;;;8.70;99.90;;;;;;5017702;28;20083;-83
2022/03/16 09:05:38;;;;;;;23.15;14.50;;;8.80;99.90;;;;;;5013472;28;20042;-83
2022/03/16 09:08:03;;;;;;;21.25;13.60;;;9.00;99.90;;;;;;5032304;28;20041;-83
2022/03/16 09:10:29;;;;;;;21.67;13.82;;;9.10;99.90;;;;;;5038290;28;20033;-83
2022/03/16 09:12:55;;;;;;;20.90;13.57;;;9.20;99.90;;;;;;5034586;28;20104;-83
2022/03/16 09:15:21;;;;;;;22.55;13.50;;;9.30;99.90;;;;;;5033032;28;20041;-83
2022/03/16 09:17:46;;;;;;;18.42;12.52;;;9.40;99.90;;;;;;5019701;28;20033;-84
2022/03/16 09:20:12;;;;;;;19.35;12.30;;;9.50;99.90;;;;;;5034434;28;20051;-83
2022/03/16 09:22:38;;;;;;;17.83;11.52;;;9.60;99.90;;;;;;5010787;28;20038;-83
2022/03/16 09:25:04;;;;;;;19.75;12.50;;;9.70;99.90;;;;;;5032396;28;20389;-83
2022/03/16 09:27:30;;;;;;;18.90;11.90;;;9.90;99.90;;;;;;5030845;28;20033;-84
2022/03/16 09:29:55;;;;;;;19.27;12.07;;;10.00;99.90;;;;;;5010825;28;20033;-83
2022/03/16 09:32:24;;;;;;;17.35;11.07;;;10.20;99.90;;;;;;5029644;28;20427;-83
2022/03/16 09:34:51;;;;;;;20.35;12.10;;;10.30;99.90;;;;;;5032057;28;20048;-83
2022/03/16 09:37:17;;;;;;;15.45;11.07;;;10.50;99.90;;;;;;5026988;28;20033;-83
2022/03/16 09:39:42;;;;;;;14.10;9.90;;;10.60;99.90;;;;;;5035335;28;20044;-83
2022/03/16 09:42:09;;;;;;;13.95;9.82;;;10.80;99.90;;;;;;5036819;28;20045;-82
2022/03/16 09:44:36;;;;;;;13.95;9.13;;;10.90;99.90;;;;;;5027920;28;20049;-83
2022/03/16 09:47:03;;;;;;;13.25;8.93;;;11.00;99.90;;;;;;5032392;28;20419;-84
2022/03/16 09:49:29;;;;;;;15.20;9.30;;;11.10;99.90;;;;;;5031157;28;20038;-83
2022/03/16 09:51:56;;;;;;;14.23;8.85;;;11.10;99.90;;;;;;5030913;28;20439;-83
2022/03/16 09:54:22;;;;;;;14.70;8.93;;;11.20;99.90;;;;;;5027050;28;20036;-83
2022/03/16 09:56:48;;;;;;;12.90;7.68;;;11.30;99.90;;;;;;5012078;28;20382;-83
2022/03/16 09:59:14;;;;;;;11.98;7.18;;;11.30;99.90;;;;;;5031016;28;20037;-83
2022/03/16 10:01:44;;;;;;;11.35;7.45;;;11.40;99.90;;;;;;5006598;28;20099;-83
2022/03/16 10:04:10;;;;;;;13.07;7.90;;;11.50;99.90;;;;;;5018728;28;20062;-83
2022/03/16 10:06:40;;;;;;;10.80;7.68;;;11.60;98.80;;;;;;5032378;28;20041;-83
2022/03/16 10:15:10;;;;;;;11.68;7.38;;;11.80;97.20;;;;;;5026203;28;20053;-83
2022/03/16 10:17:45;;;;;;;11.32;7.13;;;11.90;96.40;;;;;;5026284;28;20117;-82
2022/03/16 10:20:17;;;;;;;11.65;7.13;;;12.00;95.80;;;;;;5027390;28;20446;-83
2022/03/16 10:22:43;;;;;;;12.73;6.95;;;12.00;94.30;;;;;;5044006;28;20093;-83
2022/03/16 10:25:10;;;;;;;11.30;7.25;;;12.10;94.60;;;;;;5019739;28;20041;-83
2022/03/16 10:27:37;;;;;;;10.43;6.88;;;12.20;93.80;;;;;;5024430;28;20056;-82
2022/03/16 10:30:05;;;;;;;10.85;6.95;;;12.20;93.20;;;;;;5001537;28;20072;-82
2022/03/16 10:32:31;;;;;;;10.55;6.78;;;12.30;92.20;;;;;;5011738;28;20455;-83
2022/03/16 10:34:57;;;;;;;11.73;5.78;;;12.30;91.70;;;;;;5024992;28;20041;-83
2022/03/16 10:37:24;;;;;;;9.40;6.45;;;12.30;90.10;;;;;;5028556;28;20045;-82
2022/03/16 10:39:52;;;;;;;9.05;6.07;;;12.40;88.10;;;;;;5030523;28;20034;-82
2022/03/16 10:48:14;;;;;;;10.23;6.18;;;12.50;88.00;;;;;;5019485;28;20418;-83
2022/03/16 10:50:41;;;;;;;10.02;6.75;;;12.70;88.70;;;;;;4991911;28;20497;-83
2022/03/16 10:53:09;;;;;;;14.07;6.40;;;12.80;86.60;;;;;;5005264;28;20482;-83
2022/03/16 10:55:37;;;;;;;8.98;6.18;;;12.90;87.10;;;;;;5029325;28;20037;-83
2022/03/16 10:58:06;;;;;;;12.32;7.10;;;13.10;84.70;;;;;;5026419;28;20140;-83
2022/03/16 11:00:36;;;;;;;11.30;6.82;;;13.10;81.30;;;;;;5005256;28;20088;-82
2022/03/16 11:03:09;;;;;;;8.82;5.53;;;13.20;81.30;;;;;;5012834;28;20474;-82
2022/03/16 11:05:40;;;;;;;11.02;6.22;;;13.20;78.50;;;;;;5045925;28;20104;-82
2022/03/16 11:08:07;;;;;;;9.27;5.53;;;13.30;77.40;;;;;;5048607;28;20500;-83
2022/03/16 11:10:43;;;;;;;9.88;6.72;;;13.30;78.10;;;;;;5031703;28;20037;-83
2022/03/16 11:13:28;;;;;;;10.32;6.07;;;13.40;77.50;;;;;;5032070;28;20136;-83
2022/03/16 11:15:56;;;;;;;9.10;5.78;;;13.50;75.50;;;;;;5047109;28;20037;-83
2022/03/16 11:18:25;;;;;;;10.35;5.60;;;13.50;72.50;;;;;;5029898;28;20120;-83
2022/03/16 11:20:58;;;;;;;10.07;6.18;;;13.60;73.90;;;;;;5011852;28;20377;-83
2022/03/16 11:26:17;;;;;;;11.15;6.63;;;13.60;72.50;;;;;;5036373;28;20500;-83
2022/03/16 11:29:08;;;;;;;9.75;6.22;;;13.70;73.10;;;;;;5045346;28;20531;-83
2022/03/16 11:31:34;;;;;;;10.18;6.53;;;13.70;71.90;;;;;;5050655;28;20052;-82
2022/03/16 11:34:05;;;;;;;10.65;6.45;;;13.80;73.20;;;;;;5050792;28;20063;-82
2022/03/16 11:36:38;;;;;;;9.35;5.57;;;13.90;70.80;;;;;;5036617;28;20041;-82
2022/03/16 11:39:14;;;;;;;8.55;6.13;;;14.00;69.70;;;;;;5031358;28;20199;-82
2022/03/16 11:41:52;;;;;;;11.00;5.78;;;14.00;68.20;;;;;;5032165;28;20128;-82
2022/03/16 11:44:26;;;;;;;9.13;6.13;;;14.10;67.50;;;;;;5019812;28;20477;-83
2022/03/16 11:46:53;;;;;;;11.70;6.55;;;14.10;67.40;;;;;;5033240;28;20063;-82
2022/03/16 11:49:29;;;;;;;8.90;6.18;;;14.20;68.00;;;;;;5030990;28;20083;-82
2022/03/16 11:52:04;;;;;;;11.00;6.07;;;14.30;66.60;;;;;;5030430;28;20123;-82
2022/03/16 11:54:49;;;;;;;7.97;5.80;;;14.40;65.10;;;;;;5015461;28;20041;-82
2022/03/16 11:57:50;;;;;;;9.50;6.30;;;14.50;65.10;;;;;;5038248;28;20087;-82
2022/03/16 12:00:17;;;;;;;10.38;6.13;;;14.60;65.50;;;;;;5034736;28;20392;-82
2022/03/16 12:02:57;;;;;;;9.05;6.03;;;14.70;64.00;;;;;;5019780;28;20041;-82
2022/03/16 12:05:26;;;;;;;11.23;6.32;;;14.80;64.20;;;;;;5039642;28;20049;-82
2022/03/16 12:08:12;;;;;;;10.50;6.28;;;14.90;62.40;;;;;;5024400;28;20036;-83
2022/03/16 12:12:50;;;;;;;8.88;5.97;;;15.00;61.70;;;;;;5005968;28;20047;-82
2022/03/16 12:13:45;;;;;;;10.68;6.15;;;15.10;62.50;;;;;;5030102;28;20409;-83
2022/03/16 12:16:17;;;;;;;8.15;5.57;;;15.30;61.80;;;;;;5033715;28;20033;-82
2022/03/16 12:18:46;;;;;;;12.55;5.60;;;15.40;59.80;;;;;;5033172;28;20061;-82
2022/03/16 12:21:14;;;;;;;10.65;5.85;;;15.40;60.20;;;;;;5053071;28;20040;-82
2022/03/16 12:23:54;;;;;;;8.05;5.55;;;15.50;58.00;;;;;;5029652;28;20179;-82
2022/03/16 12:26:27;;;;;;;9.10;6.10;;;15.60;57.60;;;;;;5017613;28;20049;-83
2022/03/16 12:29:07;;;;;;;7.57;5.55;;;15.80;56.40;;;;;;5032493;28;20561;-82
2022/03/16 12:31:34;;;;;;;8.60;6.43;;;16.10;56.00;;;;;;5041631;28;20052;-83
2022/03/16 12:34:00;;;;;;;10.65;6.32;;;16.50;55.40;;;;;;5041755;28;20041;-83
2022/03/16 12:36:33;;;;;;;12.65;5.90;;;17.00;54.30;;;;;;5051062;28;20044;-83
2022/03/16 12:39:01;;;;;;;8.80;6.10;;;17.40;52.20;;;;;;5047855;28;20045;-83
2022/03/16 12:44:17;;;;;;;8.18;5.88;;;17.70;50.50;;;;;;5059067;28;20048;-82
2022/03/16 12:47:00;;;;;;;10.48;6.20;;;17.60;50.10;;;;;;5033338;28;20652;-83
2022/03/16 12:49:28;;;;;;;20.30;6.38;;;17.90;49.90;;;;;;5032815;28;20036;-82
2022/03/16 12:52:01;;;;;;;8.13;6.25;;;17.90;49.20;;;;;;5036391;28;20409;-82
2022/03/16 12:54:28;;;;;;;10.13;6.38;;;18.00;49.10;;;;;;5054262;28;20126;-82
2022/03/16 12:57:01;;;;;;;8.88;5.80;;;18.20;49.40;;;;;;5031762;28;20553;-82